Terminal Aerodrome Forecast
Issued by NWS

Home | Current Version | Previous Version | Text Only | Print | Product List | Glossary On
Versions: 1 2 3 4 5 6 7 8 9 10 11 12 13 14 15 16 17 18 19
000
FTUS43 KGRB 130500 AAB
TAFAUW
TAF AMD
KAUW 130505Z 1305/1324 04007KT 6SM BR OVC003
      TEMPO 1305/1309 3SM BR
     FM131500 35008KT P6SM BKN012
     FM131900 35009KT P6SM BKN025
     FM132200 35007KT 4SM -RA BR BKN019=

USA.gov is the U.S. government's official web portal to all federal, state and local government web resources and services.